Time,TemperatureF,DewpointF,PressureIn,WindDirection,WindDirectionDegrees,WindSpeedMPH,WindSpeedGustMPH,Humidity,HourlyPrecipIn,Conditions,Clouds,dailyrainin,SoftwareType,DateUTC
2013-08-20 01:00:00,88.0,57.0,-100.00,North,-999,-999.0,-999.0,35,0.00,,,0.83,,2013-08-20 08:00:00,
2013-08-20 01:52:00,88.0,57.0,-100.00,North,-999,-999.0,-999.0,35,0.00,,,0.83,,2013-08-20 08:52:00,
2013-08-20 02:00:00,87.0,56.0,-100.00,North,-999,-999.0,-999.0,35,0.00,,,0.83,,2013-08-20 09:00:00,
2013-08-20 02:53:00,87.0,56.0,-100.00,North,-999,-999.0,-999.0,35,0.00,,,0.83,,2013-08-20 09:53:00,
2013-08-20 03:00:00,87.0,56.0,-100.00,North,-999,-999.0,-999.0,35,0.00,,,0.83,,2013-08-20 10:00:00,
2013-08-20 03:52:00,87.0,56.0,-100.00,North,-999,-999.0,-999.0,35,0.00,,,0.83,,2013-08-20 10:52:00,
2013-08-20 04:00:00,86.0,57.0,-100.00,North,-999,-999.0,-999.0,37,0.00,,,0.83,,2013-08-20 11:00:00,
2013-08-20 04:52:00,86.0,57.0,-100.00,North,-999,-999.0,-999.0,37,0.00,,,0.83,,2013-08-20 11:52:00,
2013-08-20 07:00:00,87.0,55.0,-100.00,North,-999,-999.0,-999.0,34,-99.99,,,0.83,,2013-08-20 14:00:00,
2013-08-20 07:52:00,87.0,55.0,-100.00,North,-999,-999.0,-999.0,34,-99.99,,,0.83,,2013-08-20 14:52:00,
2013-08-20 08:00:00,87.0,55.0,-100.00,North,-999,-999.0,-999.0,34,0.00,,,0.83,,2013-08-20 15:00:00,
2013-08-20 08:53:00,87.0,55.0,-100.00,North,-999,-999.0,-999.0,34,0.00,,,0.83,,2013-08-20 15:53:00,
2013-08-20 09:00:00,90.0,57.0,-100.00,North,-999,-999.0,-999.0,32,0.00,,,0.83,,2013-08-20 16:00:00,
2013-08-20 09:53:00,90.0,57.0,-100.00,North,-999,-999.0,-999.0,32,0.00,,,0.83,,2013-08-20 16:53:00,
2013-08-20 10:00:00,94.0,57.0,-100.00,North,-999,-999.0,-999.0,29,0.00,,,0.83,,2013-08-20 17:00:00,
2013-08-20 10:52:00,94.0,57.0,-100.00,North,-999,-999.0,-999.0,29,0.00,,,0.83,,2013-08-20 17:52:00,
2013-08-20 12:00:00,97.0,53.0,-100.00,North,-999,-999.0,-999.0,23,0.00,,,0.83,,2013-08-20 19:00:00,
2013-08-20 12:53:00,97.0,53.0,-100.00,North,-999,-999.0,-999.0,23,0.00,,,0.83,,2013-08-20 19:53:00,
2013-08-20 13:00:00,100.0,50.0,-100.00,North,-999,-999.0,-999.0,19,0.00,,,0.83,,2013-08-20 20:00:00,
2013-08-20 13:52:00,100.0,50.0,-100.00,North,-999,-999.0,-999.0,19,0.00,,,0.83,,2013-08-20 20:52:00,
2013-08-20 15:00:00,103.0,44.0,-100.00,North,-999,-999.0,-999.0,14,0.00,,,0.83,,2013-08-20 22:00:00,
2013-08-20 15:53:00,103.0,44.0,-100.00,North,-999,-999.0,-999.0,14,0.00,,,0.83,,2013-08-20 22:53:00,
2013-08-20 16:00:00,106.0,43.0,-100.00,North,-999,-999.0,-999.0,12,0.00,,,0.83,,2013-08-20 23:00:00,
2013-08-20 16:53:00,106.0,43.0,-100.00,North,-999,-999.0,-999.0,12,0.00,,,0.83,,2013-08-20 23:53:00,
2013-08-20 17:00:00,105.0,44.0,-100.00,North,-999,-999.0,-999.0,13,0.00,,,0.49,,2013-08-21 00:00:00,
2013-08-20 17:52:00,105.0,44.0,-100.00,North,-999,-999.0,-999.0,13,0.00,,,0.49,,2013-08-21 00:52:00,
2013-08-20 18:00:00,104.0,47.0,-100.00,North,-999,-999.0,-999.0,15,0.00,,,0.01,,2013-08-21 01:00:00,
2013-08-20 18:52:00,104.0,47.0,-100.00,North,-999,-999.0,-999.0,15,0.00,,,0.01,,2013-08-21 01:52:00,
2013-08-20 19:00:00,101.0,50.0,-100.00,North,-999,-999.0,-999.0,18,0.00,,,0.00,,2013-08-21 02:00:00,
2013-08-20 19:52:00,101.0,50.0,-100.00,North,-999,-999.0,-999.0,18,0.00,,,0.00,,2013-08-21 02:52:00,
2013-08-20 20:00:00,98.0,53.0,-100.00,North,-999,-999.0,-999.0,22,0.00,,,0.00,,2013-08-21 03:00:00,
2013-08-20 20:55:00,98.0,53.0,-100.00,North,-999,-999.0,-999.0,22,0.00,,,0.00,,2013-08-21 03:55:00,
2013-08-20 22:00:00,89.0,51.0,-100.00,North,-999,-999.0,-999.0,27,0.00,,,0.00,,2013-08-21 05:00:00,
2013-08-20 22:52:00,89.0,51.0,-100.00,North,-999,-999.0,-999.0,27,0.00,,,0.00,,2013-08-21 05:52:00,
2013-08-20 23:00:00,86.0,52.0,-100.00,North,-999,-999.0,-999.0,31,0.00,,,0.00,,2013-08-21 06:00:00,
2013-08-20 23:52:00,86.0,52.0,-100.00,North,-999,-999.0,-999.0,31,0.00,,,0.00,,2013-08-21 06:52:00,